Terminal Aerodrome Forecast
Issued by NWS

Home | Current Version | Previous Version | Text Only | Print | Product List | Glossary On
Versions: 1 2 3 4 5 6 7 8 9 10 11 12
115
FTUS43 KPAH 030520
TAFCGI
TAF
KCGI 030520Z 0306/0406 36006KT P6SM SCT030 BKN050
      TEMPO 0306/0310 BKN025
     FM031000 36003KT 5SM BR SCT060
     FM031500 35006KT P6SM BKN040
     FM040200 VRB02KT P6SM SCT040=

USA.gov is the U.S. government's official web portal to all federal, state and local government web resources and services.